Time;durP1;ratioP1;P1;durP2;ratioP2;P2;SDS_P1;SDS_P2;PMS_P1;PMS_P2;Temp;Humidity;BMP_temperature;BMP_pressure;BME280_temperature;BME280_humidity;BME280_pressure;Samples;Min_cycle;Max_cycle;Signal;HPM_P1;HPM_P2
2021/05/07 00:01:08;;;;;;;6.30;5.70;;;;;;;7.52;71.54;99763.19;5019063;28;20207;-85
2021/05/07 00:03:35;;;;;;;7.53;5.60;;;;;;;7.46;71.52;99759.13;5018468;28;20694;-85
2021/05/07 00:06:03;;;;;;;6.17;5.30;;;;;;;7.45;71.69;99757.44;5018471;28;20211;-84
2021/05/07 00:08:32;;;;;;;6.83;5.97;;;;;;;7.45;71.37;99757.44;5017705;28;20282;-83
2021/05/07 00:10:59;;;;;;;6.40;5.80;;;;;;;7.46;71.52;99759.13;5017840;28;20213;-83
2021/05/07 00:13:27;;;;;;;5.90;5.30;;;;;;;7.46;71.79;99764.44;5017239;28;20203;-84
2021/05/07 00:15:53;;;;;;;6.33;5.73;;;;;;;7.47;71.82;99760.00;5016235;28;20211;-82
2021/05/07 00:18:19;;;;;;;6.90;6.17;;;;;;;7.46;71.81;99751.19;5016234;28;20238;-83
2021/05/07 00:20:45;;;;;;;6.40;5.30;;;;;;;7.45;71.79;99757.44;5017252;28;20210;-81
2021/05/07 00:23:14;;;;;;;6.63;5.30;;;;;;;7.45;72.00;99749.50;5017147;28;20218;-81
2021/05/07 00:25:41;;;;;;;6.93;6.00;;;;;;;7.47;71.72;99755.53;5016747;28;20537;-82
2021/05/07 00:28:09;;;;;;;6.23;5.63;;;;;;;7.48;72.24;99764.34;5015756;28;20225;-83
2021/05/07 00:30:37;;;;;;;6.47;5.87;;;;;;;7.47;71.78;99762.63;5016358;28;20285;-82
2021/05/07 00:33:03;;;;;;;9.00;6.47;;;;;;;7.45;72.62;99751.28;5016962;28;20203;-82
2021/05/07 00:35:29;;;;;;;8.13;5.73;;;;;;;7.45;72.10;99752.13;5018181;28;20213;-82
2021/05/07 00:37:55;;;;;;;6.50;5.87;;;;;;;7.44;72.59;99758.38;5017352;28;20325;-84
2021/05/07 00:40:22;;;;;;;9.27;6.83;;;;;;;7.45;72.22;99768.03;5017509;28;20673;-83
2021/05/07 00:42:48;;;;;;;7.47;6.70;;;;;;;7.47;72.90;99767.94;5018131;28;20211;-83
2021/05/07 00:45:16;;;;;;;9.93;7.30;;;;;;;7.49;73.04;99768.69;5017334;28;20205;-83
2021/05/07 00:47:46;;;;;;;9.17;8.00;;;;;;;7.47;72.83;99771.44;5017448;28;20229;-83
2021/05/07 00:50:12;;;;;;;7.57;6.83;;;;;;;7.49;72.60;99763.38;5017612;28;20213;-83
2021/05/07 00:52:38;;;;;;;7.87;7.00;;;;;;;7.47;72.60;99755.53;5017257;28;20572;-84
2021/05/07 00:55:06;;;;;;;8.07;6.50;;;;;;;7.47;72.98;99762.63;5017729;28;20206;-84
2021/05/07 00:57:32;;;;;;;10.70;7.50;;;;;;;7.46;72.38;99753.84;5016852;28;20233;-83
2021/05/07 00:59:58;;;;;;;7.40;6.27;;;;;;;7.44;73.12;99755.72;5015063;28;20712;-83
2021/05/07 01:02:24;;;;;;;9.17;7.10;;;;;;;7.42;72.76;99756.78;5015026;28;20207;-83
2021/05/07 01:04:51;;;;;;;7.90;7.10;;;;;;;7.40;72.70;99766.63;5014717;28;20213;-83
2021/05/07 01:07:18;;;;;;;9.57;7.67;;;;;;;7.39;73.29;99765.75;5014521;28;20221;-84
2021/05/07 01:09:44;;;;;;;8.83;7.93;;;;;;;7.38;73.30;99766.72;5014720;28;20343;-85
2021/05/07 01:12:11;;;;;;;9.77;8.77;;;;;;;7.37;73.21;99764.16;5017117;28;20202;-83
2021/05/07 01:14:37;;;;;;;11.60;9.73;;;;;;;7.34;73.21;99757.28;5015983;28;20203;-84
2021/05/07 01:17:07;;;;;;;11.13;9.83;;;;;;;7.31;73.37;99758.34;5016300;28;20222;-84
2021/05/07 01:19:33;;;;;;;12.00;10.70;;;;;;;7.27;73.94;99762.13;5015957;28;20261;-84
2021/05/07 01:22:02;;;;;;;12.70;11.40;;;;;;;7.23;73.49;99751.81;5017112;28;20286;-85
2021/05/07 01:24:29;;;;;;;14.23;11.93;;;;;;;7.21;73.87;99759.84;5017425;28;20684;-84
2021/05/07 01:26:55;;;;;;;14.13;11.93;;;;;;;7.16;74.12;99751.38;5017148;28;20207;-84
2021/05/07 01:29:22;;;;;;;14.57;11.27;;;;;;;7.15;74.04;99754.09;5017391;28;20261;-84
2021/05/07 01:31:53;;;;;;;15.37;12.27;;;;;;;7.20;74.57;99759.94;5016971;28;20199;-83
2021/05/07 01:34:21;;;;;;;13.30;11.33;;;;;;;7.19;74.86;99759.09;5017173;28;20210;-84
2021/05/07 01:36:47;;;;;;;12.33;10.63;;;;;;;7.22;75.18;99763.34;5017185;28;20597;-83
2021/05/07 01:39:14;;;;;;;12.77;11.47;;;;;;;7.18;74.75;99752.09;5016844;28;20223;-85
2021/05/07 01:41:40;;;;;;;12.70;11.37;;;;;;;7.19;74.34;99755.59;5016609;28;20203;-84
2021/05/07 01:44:07;;;;;;;12.73;11.47;;;;;;;7.21;74.86;99761.66;5016198;28;20674;-85
2021/05/07 01:46:36;;;;;;;12.03;10.80;;;;;;;7.21;74.93;99764.28;5016714;28;20218;-84
2021/05/07 01:49:02;;;;;;;12.40;11.10;;;;;;;7.16;75.29;99756.66;5016556;28;20314;-84
2021/05/07 01:51:29;;;;;;;12.37;10.70;;;;;;;7.19;75.16;99774.13;5015997;28;20235;-84
2021/05/07 01:53:55;;;;;;;16.33;11.47;;;;;;;7.15;75.30;99770.84;5015810;28;20203;-83
2021/05/07 01:56:22;;;;;;;14.63;11.17;;;;;;;7.11;75.08;99781.72;5015821;28;20218;-84
2021/05/07 01:58:48;;;;;;;14.20;12.03;;;;;;;7.12;75.10;99773.69;5015964;28;20318;-84
2021/05/07 02:01:14;;;;;;;13.20;11.20;;;;;;;7.11;75.29;99774.63;5015559;28;20741;-82
2021/05/07 02:03:40;;;;;;;12.73;11.03;;;;;;;7.05;75.28;99768.84;5016422;28;20632;-81
2021/05/07 02:06:06;;;;;;;15.83;12.37;;;;;;;7.04;75.77;99778.59;5015481;28;20207;-81
2021/05/07 02:08:32;;;;;;;12.97;11.63;;;;;;;7.01;75.65;99781.44;5014864;28;20231;-85
2021/05/07 02:10:58;;;;;;;13.37;11.43;;;;;;;6.99;75.69;99791.25;5014821;28;20207;-84
2021/05/07 02:13:25;;;;;;;13.70;12.20;;;;;;;6.99;75.91;99793.09;5014122;28;20729;-84
2021/05/07 02:15:51;;;;;;;12.73;11.33;;;;;;;6.95;75.70;99803.88;5014530;28;20218;-83
2021/05/07 02:18:18;;;;;;;13.77;12.17;;;;;;;6.92;75.80;99796.09;5014102;28;20237;-83
2021/05/07 02:20:46;;;;;;;13.50;12.03;;;;;;;6.89;76.04;99793.66;5017695;28;20198;-83
2021/05/07 02:23:14;;;;;;;14.50;12.60;;;;;;;6.89;76.12;99798.94;5043394;22;20238;-68
2021/05/07 02:25:40;;;;;;;16.10;13.17;;;;;;;6.90;76.15;99802.44;5024737;28;20226;-67
2021/05/07 02:28:06;;;;;;;15.43;11.73;;;;;;;6.90;76.42;99803.28;5028988;28;20206;-67
2021/05/07 02:30:33;;;;;;;13.37;11.47;;;;;;;6.90;76.51;99813.88;5020747;28;20259;-67
2021/05/07 02:32:59;;;;;;;15.40;11.87;;;;;;;6.88;76.71;99815.75;5015080;28;20669;-68
2021/05/07 02:35:26;;;;;;;14.80;11.93;;;;;;;6.86;76.85;99808.84;5046653;22;20225;-80
2021/05/07 02:37:52;;;;;;;13.67;10.90;;;;;;;6.81;76.43;99811.78;5078087;28;20229;-80
2021/05/07 02:40:18;;;;;;;11.90;10.17;;;;;;;6.75;76.28;99821.91;5078495;28;20205;-80
2021/05/07 02:42:44;;;;;;;10.10;8.70;;;;;;;6.67;76.66;99826.78;5073264;28;20217;-79
2021/05/07 02:45:11;;;;;;;8.93;8.03;;;;;;;6.57;76.53;99823.88;5064634;28;20202;-80
2021/05/07 02:47:39;;;;;;;8.60;7.70;;;;;;;6.45;76.19;99820.13;5057638;28;20553;-79
2021/05/07 02:50:08;;;;;;;9.23;7.50;;;;;;;6.34;76.24;99821.72;5064702;28;20206;-79
2021/05/07 02:52:34;;;;;;;8.17;7.30;;;;;;;6.24;76.43;99827.56;5051532;28;20228;-80
2021/05/07 02:55:02;;;;;;;7.70;6.93;;;;;;;6.15;75.93;99828.09;5055487;28;20198;-80
2021/05/07 02:57:28;;;;;;;9.90;7.77;;;;;;;6.07;76.28;99826.84;5057274;28;20221;-79
2021/05/07 02:59:54;;;;;;;8.30;7.50;;;;;;;6.03;75.83;99833.25;5048013;28;20202;-79
2021/05/07 03:02:20;;;;;;;9.30;8.40;;;;;;;6.01;76.28;99837.78;5050253;28;20592;-78
2021/05/07 03:04:47;;;;;;;9.87;7.87;;;;;;;5.98;76.25;99844.06;5053055;28;20210;-80
2021/05/07 03:07:13;;;;;;;7.50;6.80;;;;;;;5.94;76.28;99845.19;5057183;28;20257;-80
2021/05/07 03:09:39;;;;;;;7.23;6.37;;;;;;;5.87;75.96;99846.47;5056165;28;20240;-79
2021/05/07 03:12:06;;;;;;;7.40;6.70;;;;;;;5.82;76.15;99843.22;5056782;28;20223;-79
2021/05/07 03:14:32;;;;;;;8.60;6.50;;;;;;;5.77;76.13;99853.19;5056928;28;20204;-79
2021/05/07 03:16:58;;;;;;;7.83;6.70;;;;;;;5.72;76.37;99853.47;5051981;28;20298;-79
2021/05/07 03:19:24;;;;;;;8.57;6.70;;;;;;;5.67;76.41;99873.16;5053377;28;20269;-80
2021/05/07 03:21:51;;;;;;;7.60;6.57;;;;;;;5.60;76.35;99869.97;5057314;28;20209;-80
2021/05/07 03:24:17;;;;;;;7.10;5.83;;;;;;;5.54;76.32;99872.97;5057225;28;20205;-79
2021/05/07 03:26:43;;;;;;;8.47;6.90;;;;;;;5.46;76.77;99869.88;5055614;28;20235;-79
2021/05/07 03:29:09;;;;;;;7.33;6.63;;;;;;;5.39;76.60;99866.72;5058422;28;20220;-79
2021/05/07 03:31:35;;;;;;;8.97;7.43;;;;;;;5.36;76.57;99877.47;5051568;28;20205;-79
2021/05/07 03:34:02;;;;;;;6.50;5.83;;;;;;;5.31;76.42;99883.94;5059655;28;20225;-79
2021/05/07 03:36:28;;;;;;;6.60;5.90;;;;;;;5.27;77.09;99887.66;5059117;28;20218;-79
2021/05/07 03:38:55;;;;;;;6.27;5.67;;;;;;;5.22;77.05;99893.19;5058342;28;20229;-79
2021/05/07 03:41:21;;;;;;;6.67;5.97;;;;;;;5.17;77.26;99903.16;5058739;28;20208;-79
2021/05/07 03:43:47;;;;;;;6.03;5.43;;;;;;;5.13;77.18;99907.75;5057907;28;20714;-79
2021/05/07 03:46:13;;;;;;;5.53;4.93;;;;;;;5.07;76.83;99913.31;5053963;28;20647;-79
2021/05/07 03:48:39;;;;;;;4.67;4.27;;;;;;;5.00;76.66;99917.25;5057637;28;20212;-79
2021/05/07 03:51:05;;;;;;;5.60;5.00;;;;;;;4.92;76.64;99926.47;5055823;28;20205;-79
2021/05/07 03:53:31;;;;;;;5.63;4.80;;;;;;;4.86;76.80;99925.00;5057930;28;20252;-79
2021/05/07 03:55:58;;;;;;;6.23;5.30;;;;;;;4.81;76.87;99922.59;5054218;28;20198;-79
2021/05/07 03:58:24;;;;;;;5.30;4.80;;;;;;;4.80;77.29;99922.69;5048575;28;20221;-78
2021/05/07 04:00:50;;;;;;;5.17;4.43;;;;;;;4.75;76.85;99930.81;5057352;28;20209;-78
2021/05/07 04:03:16;;;;;;;5.07;4.57;;;;;;;4.71;77.33;99939.81;5058169;28;20217;-78
2021/05/07 04:05:45;;;;;;;4.33;3.93;;;;;;;4.68;77.87;99942.59;5058251;28;20213;-78
2021/05/07 04:08:14;;;;;;;4.83;4.33;;;;;;;4.67;77.49;99955.88;5057736;28;20240;-78
2021/05/07 04:10:42;;;;;;;5.13;4.33;;;;;;;4.64;77.57;99962.19;5057480;28;20212;-79
2021/05/07 04:15:54;;;;;;;5.10;4.60;;;;;;;4.60;78.15;99971.16;5056514;28;20208;-78
2021/05/07 04:18:20;;;;;;;6.70;4.30;;;;;;;4.57;78.03;99963.41;5064762;28;20587;-79
2021/05/07 04:20:46;;;;;;;5.63;5.03;;;;;;;4.52;77.33;99968.91;5056590;28;20202;-78
2021/05/07 04:23:12;;;;;;;6.40;5.23;;;;;;;4.52;78.05;99979.44;5056513;28;20710;-78
2021/05/07 04:25:38;;;;;;;5.63;5.03;;;;;;;4.52;78.21;99986.50;5056252;28;20202;-79
2021/05/07 04:28:04;;;;;;;5.20;4.77;;;;;;;4.50;77.58;99991.00;5051890;28;20197;-79
2021/05/07 04:30:31;;;;;;;5.83;5.00;;;;;;;4.49;78.11;99990.13;5053964;28;20208;-79
2021/05/07 04:32:57;;;;;;;5.33;4.83;;;;;;;4.48;78.51;100006.03;5052335;28;20268;-79
2021/05/07 04:35:23;;;;;;;5.43;4.77;;;;;;;4.45;77.73;99999.16;5052714;28;20220;-79
2021/05/07 04:37:49;;;;;;;6.00;4.97;;;;;;;4.45;77.76;100007.06;5053966;28;20236;-79
2021/05/07 04:40:16;;;;;;;5.60;4.73;;;;;;;4.45;78.32;100008.84;5048518;28;20206;-78
2021/05/07 04:42:42;;;;;;;5.50;4.90;;;;;;;4.46;78.67;100010.56;5053393;28;20282;-79
2021/05/07 04:45:09;;;;;;;6.10;5.07;;;;;;;4.46;78.78;100005.28;5058815;28;20201;-78
2021/05/07 04:47:37;;;;;;;5.87;5.17;;;;;;;4.47;78.17;100013.13;5058476;28;20201;-78
2021/05/07 04:50:03;;;;;;;6.37;5.77;;;;;;;4.48;78.97;100021.84;5056795;28;20219;-79
2021/05/07 04:52:29;;;;;;;6.20;4.90;;;;;;;4.50;79.10;100027.91;5052408;28;20292;-80
2021/05/07 04:54:55;;;;;;;5.90;4.63;;;;;;;4.53;78.87;100027.75;5055067;28;20198;-77
2021/05/07 04:57:21;;;;;;;5.90;5.10;;;;;;;4.53;78.93;100030.41;5053596;28;20229;-79
2021/05/07 04:59:47;;;;;;;5.57;5.07;;;;;;;4.54;79.02;100034.75;5052502;28;20267;-79
2021/05/07 05:02:14;;;;;;;5.43;4.93;;;;;;;4.56;78.82;100029.41;5056805;28;20320;-78
2021/05/07 05:04:41;;;;;;;5.37;4.70;;;;;;;4.58;78.37;100036.31;5055694;28;20297;-79
2021/05/07 05:07:08;;;;;;;5.10;4.53;;;;;;;4.62;78.55;100037.03;5052828;28;20194;-80
2021/05/07 05:09:34;;;;;;;4.80;4.40;;;;;;;4.66;78.29;100036.78;5056721;28;20201;-79
2021/05/07 05:12:00;;;;;;;4.40;4.00;;;;;;;4.69;78.51;100038.41;5056774;28;20205;-80
2021/05/07 05:14:26;;;;;;;4.33;3.60;;;;;;;4.73;79.06;100029.44;5053973;28;20632;-80
2021/05/07 05:16:52;;;;;;;4.53;3.80;;;;;;;4.74;79.06;100033.78;5053181;28;20540;-79
2021/05/07 05:19:18;;;;;;;5.13;4.00;;;;;;;4.76;78.66;100037.19;5056695;28;20227;-79
2021/05/07 05:21:45;;;;;;;5.40;4.70;;;;;;;4.79;78.61;100039.69;5055603;28;20250;-79
2021/05/07 05:24:11;;;;;;;8.20;4.70;;;;;;;4.82;79.19;100047.47;5056405;28;20221;-78
2021/05/07 05:26:37;;;;;;;5.10;4.33;;;;;;;4.84;78.58;100042.94;5047738;28;20205;-80
2021/05/07 05:29:03;;;;;;;7.17;5.07;;;;;;;4.86;78.59;100046.34;5056579;28;20300;-80
2021/05/07 05:31:30;;;;;;;6.03;4.87;;;;;;;4.88;78.60;100060.31;5057614;28;20216;-78
2021/05/07 05:33:56;;;;;;;6.37;5.27;;;;;;;4.91;79.18;100056.69;5048245;28;20619;-79
2021/05/07 05:36:23;;;;;;;5.93;5.30;;;;;;;4.98;78.46;100056.31;5057510;28;20210;-79
2021/05/07 05:38:50;;;;;;;6.37;5.50;;;;;;;5.10;79.26;100054.84;5057687;28;20240;-79
2021/05/07 05:41:16;;;;;;;6.47;5.77;;;;;;;5.24;78.98;100060.28;5057963;28;20213;-80
2021/05/07 05:43:42;;;;;;;5.90;5.30;;;;;;;5.39;79.54;100051.56;5054170;28;20320;-79
2021/05/07 05:46:08;;;;;;;7.67;6.97;;;;;;;5.53;79.42;100051.72;5057398;28;20579;-80
2021/05/07 05:48:34;;;;;;;7.37;6.50;;;;;;;5.69;79.36;100062.34;5060493;28;20197;-79
2021/05/07 05:51:00;;;;;;;7.70;6.87;;;;;;;5.78;78.89;100067.13;5060706;28;20729;-79
2021/05/07 05:53:26;;;;;;;8.80;6.93;;;;;;;5.85;78.95;100067.66;5060457;28;20225;-80
2021/05/07 05:55:53;;;;;;;8.93;8.03;;;;;;;5.90;78.70;100074.44;5064019;28;20208;-80
2021/05/07 05:58:19;;;;;;;8.10;7.30;;;;;;;5.93;78.36;100078.69;5058033;28;20245;-79
2021/05/07 06:00:45;;;;;;;8.00;7.20;;;;;;;5.96;78.28;100072.41;5064791;28;20629;-81
2021/05/07 06:03:11;;;;;;;10.33;8.70;;;;;;;6.00;78.03;100077.44;5064239;28;20251;-80
2021/05/07 06:05:37;;;;;;;10.00;9.00;;;;;;;6.08;78.07;100088.47;5059097;28;20292;-82
2021/05/07 06:08:03;;;;;;;10.83;8.73;;;;;;;6.16;77.83;100086.25;5058391;28;20225;-80
2021/05/07 06:10:29;;;;;;;9.73;8.67;;;;;;;6.21;77.33;100092.16;5057951;28;20594;-82
2021/05/07 06:12:56;;;;;;;9.93;8.87;;;;;;;6.22;77.18;100091.22;5060547;28;20226;-82
2021/05/07 06:15:23;;;;;;;10.33;9.13;;;;;;;6.20;76.37;100101.03;5062220;28;20292;-83
2021/05/07 06:17:49;;;;;;;10.93;9.83;;;;;;;6.20;76.87;100103.66;5064533;28;20251;-82
2021/05/07 06:20:17;;;;;;;10.10;9.10;;;;;;;6.22;76.59;100107.09;5063021;28;20210;-82
2021/05/07 06:22:44;;;;;;;11.00;9.27;;;;;;;6.25;76.53;100109.56;5056709;28;20241;-81
2021/05/07 06:25:12;;;;;;;11.23;9.97;;;;;;;6.32;76.21;100112.72;5067486;28;20213;-83
2021/05/07 06:27:38;;;;;;;10.83;9.80;;;;;;;6.37;76.17;100109.84;5067917;28;20539;-83
2021/05/07 06:30:08;;;;;;;11.97;9.67;;;;;;;6.39;76.35;100108.81;5058478;28;20260;-82
2021/05/07 06:32:34;;;;;;;14.83;10.47;;;;;;;6.41;76.15;100116.66;5068031;28;20229;-82
2021/05/07 06:35:00;;;;;;;11.77;10.50;;;;;;;6.41;76.11;100116.66;5064551;28;20216;-82
2021/05/07 06:37:26;;;;;;;12.07;9.83;;;;;;;6.42;75.62;100110.44;5056556;28;20255;-82
2021/05/07 06:39:52;;;;;;;10.83;9.73;;;;;;;6.39;75.24;100121.19;5055380;28;20201;-82
2021/05/07 06:42:19;;;;;;;12.80;10.97;;;;;;;6.39;74.98;100126.47;5065066;28;20247;-82
2021/05/07 06:44:45;;;;;;;11.77;10.57;;;;;;;6.41;75.07;100119.31;5065510;28;20206;-82
2021/05/07 06:47:12;;;;;;;14.40;10.80;;;;;;;6.46;75.07;100120.75;5066086;28;20338;-82
2021/05/07 06:49:38;;;;;;;12.17;10.63;;;;;;;6.50;75.06;100122.28;5046402;28;20269;-82
2021/05/07 06:52:05;;;;;;;12.13;10.87;;;;;;;6.54;74.50;100122.97;5045535;28;20217;-82
2021/05/07 06:54:31;;;;;;;12.90;10.40;;;;;;;6.57;74.76;100128.97;5049113;28;20217;-81
2021/05/07 06:56:59;;;;;;;10.80;9.37;;;;;;;6.58;74.24;100132.47;5064524;28;20210;-82
2021/05/07 06:59:27;;;;;;;10.47;8.67;;;;;;;6.59;74.12;100142.97;5061025;28;20272;-82
2021/05/07 07:01:53;;;;;;;10.70;8.40;;;;;;;6.56;74.11;100142.28;5048671;28;20292;-82
2021/05/07 07:04:20;;;;;;;10.67;7.97;;;;;;;6.55;73.83;100145.84;5049432;28;20210;-82
2021/05/07 07:06:49;;;;;;;9.53;7.90;;;;;;;6.52;73.60;100148.66;5052629;28;20288;-82
2021/05/07 07:09:16;;;;;;;10.47;7.50;;;;;;;6.51;73.15;100149.59;5065253;28;20289;-82
2021/05/07 07:11:42;;;;;;;9.63;8.07;;;;;;;6.50;73.23;100147.91;5063843;28;20216;-82
2021/05/07 07:14:08;;;;;;;7.90;6.73;;;;;;;6.53;73.42;100143.28;5064368;28;20232;-82
2021/05/07 07:16:34;;;;;;;9.07;7.77;;;;;;;6.56;73.30;100153.72;5052030;28;20603;-82
2021/05/07 07:19:01;;;;;;;7.83;7.03;;;;;;;6.62;73.08;100157.81;5065730;28;20225;-82
2021/05/07 07:21:28;;;;;;;7.80;6.90;;;;;;;6.69;72.69;100172.41;5065641;28;20267;-82
2021/05/07 07:23:54;;;;;;;9.10;7.17;;;;;;;6.75;72.44;100169.44;5069688;28;20221;-80
2021/05/07 07:26:20;;;;;;;8.50;7.60;;;;;;;6.82;72.29;100175.22;5069597;28;20206;-83
2021/05/07 07:28:52;;;;;;;10.60;7.37;;;;;;;6.88;71.78;100170.44;5069695;28;20651;-82
2021/05/07 07:31:18;;;;;;;6.57;5.87;;;;;;;6.95;71.53;100163.88;5056428;28;20201;-81
2021/05/07 07:33:44;;;;;;;7.23;6.43;;;;;;;7.01;71.29;100177.69;5050600;28;20233;-81
2021/05/07 07:36:10;;;;;;;7.80;6.13;;;;;;;7.06;71.16;100173.88;5064837;28;20277;-81
2021/05/07 07:38:37;;;;;;;7.17;6.47;;;;;;;7.11;70.33;100181.56;5062333;28;20222;-82
2021/05/07 07:41:03;;;;;;;6.43;5.53;;;;;;;7.16;70.30;100190.09;5067746;28;20212;-81
2021/05/07 07:43:29;;;;;;;6.17;5.53;;;;;;;7.22;69.97;100187.09;5061716;28;20615;-82
2021/05/07 07:45:55;;;;;;;6.47;5.87;;;;;;;7.26;69.48;100189.47;5061287;28;20246;-82
2021/05/07 07:48:22;;;;;;;6.13;5.37;;;;;;;7.33;69.69;100187.34;5059321;28;20209;-81
2021/05/07 07:50:48;;;;;;;8.10;5.70;;;;;;;7.40;69.02;100195.78;5052836;28;20205;-81
2021/05/07 07:53:14;;;;;;;6.33;5.63;;;;;;;7.47;68.90;100194.50;5051654;28;20304;-80
2021/05/07 07:55:41;;;;;;;7.17;5.80;;;;;;;7.56;68.99;100197.44;5061889;28;20209;-81
2021/05/07 07:58:08;;;;;;;6.07;5.47;;;;;;;7.66;69.11;100195.13;5060453;28;20225;-81
2021/05/07 08:00:34;;;;;;;5.63;5.10;;;;;;;7.72;68.12;100202.72;5061129;28;20210;-82
2021/05/07 08:03:00;;;;;;;6.97;5.07;;;;;;;7.73;68.24;100207.06;5061099;28;20221;-80
2021/05/07 08:05:26;;;;;;;5.87;5.13;;;;;;;7.78;67.96;100225.38;5060892;28;20208;-80
2021/05/07 08:07:57;;;;;;;6.17;5.07;;;;;;;7.85;67.06;100232.03;5060566;28;20228;-81
2021/05/07 08:10:28;;;;;;;6.60;5.90;;;;;;;7.91;67.27;100219.25;5064460;28;20265;-81
2021/05/07 08:12:55;;;;;;;6.73;5.63;;;;;;;7.96;67.19;100230.44;5063474;28;20226;-82
2021/05/07 08:15:21;;;;;;;5.57;4.97;;;;;;;8.04;66.90;100229.13;5058061;28;20205;-81
2021/05/07 08:17:50;;;;;;;6.67;5.30;;;;;;;8.09;66.82;100235.84;5064007;28;20225;-80
2021/05/07 08:20:17;;;;;;;6.20;5.00;;;;;;;8.08;66.72;100235.94;5058008;28;20206;-80
2021/05/07 08:25:13;;;;;;;5.70;4.87;;;;;;;8.04;65.73;100245.06;5004514;28;20230;-66
2021/05/07 08:27:40;;;;;;;6.27;4.80;;;;;;;8.01;65.99;100254.91;5004712;28;20257;-66
2021/05/07 08:30:09;;;;;;;4.97;4.47;;;;;;;8.01;65.70;100264.66;5004334;28;20210;-66
2021/05/07 08:32:36;;;;;;;5.33;4.60;;;;;;;7.99;65.05;100266.53;5006736;28;20261;-67
2021/05/07 08:35:02;;;;;;;5.63;4.70;;;;;;;7.96;65.44;100274.66;5006877;28;20211;-66
2021/05/07 08:37:29;;;;;;;5.60;4.43;;;;;;;7.94;64.95;100290.66;5027482;23;20231;-80
2021/05/07 08:39:56;;;;;;;4.43;4.03;;;;;;;7.95;64.74;100292.38;5043107;28;20687;-80
2021/05/07 08:42:22;;;;;;;4.40;4.00;;;;;;;7.95;64.90;100294.16;5032965;28;20282;-80
2021/05/07 08:44:49;;;;;;;4.10;3.73;;;;;;;7.93;64.96;100294.25;5026116;28;20199;-80
2021/05/07 08:47:21;;;;;;;5.53;3.50;;;;;;;7.94;64.23;100293.31;5037611;28;20214;-80
2021/05/07 08:49:54;;;;;;;3.33;2.70;;;;;;;7.92;63.83;100312.91;5027131;28;20559;-80
2021/05/07 08:52:24;;;;;;;3.63;3.00;;;;;;;7.85;64.33;100312.41;5019141;28;20698;-80
2021/05/07 08:54:51;;;;;;;4.00;3.10;;;;;;;7.78;63.50;100311.03;5021670;28;20289;-80
2021/05/07 08:57:17;;;;;;;3.60;2.90;;;;;;;7.75;63.52;100313.88;5019171;28;20199;-80
2021/05/07 08:59:44;;;;;;;3.50;3.20;;;;;;;7.77;63.42;100313.78;5026729;28;20232;-80
2021/05/07 09:02:11;;;;;;;3.67;2.73;;;;;;;7.80;62.91;100324.22;5022177;28;20199;-80
2021/05/07 09:04:49;;;;;;;5.30;3.10;;;;;;;7.83;63.65;100326.69;5018307;28;20256;-80
2021/05/07 09:07:15;;;;;;;2.93;2.13;;;;;;;7.85;63.31;100328.31;5020161;28;20203;-80
2021/05/07 09:09:49;;;;;;;5.70;3.00;;;;;;;7.89;62.89;100331.63;5017034;28;20289;-80
2021/05/07 09:12:24;;;;;;;2.77;2.20;;;;;;;7.92;62.63;100324.34;5018698;28;20213;-80
2021/05/07 09:14:50;;;;;;;2.87;2.60;;;;;;;7.96;62.68;100340.97;5019114;28;20714;-84
2021/05/07 09:17:19;;;;;;;3.40;2.80;;;;;;;8.00;62.53;100338.03;5016975;28;20202;-83
2021/05/07 09:19:46;;;;;;;2.30;2.00;;;;;;;8.05;61.18;100345.75;5018553;28;20217;-83
2021/05/07 09:22:22;;;;;;;3.20;2.40;;;;;;;8.19;61.70;100345.78;5014068;28;20203;-83
2021/05/07 09:24:48;;;;;;;4.57;2.50;;;;;;;8.39;62.14;100351.75;5020547;28;20206;-83
2021/05/07 09:27:22;;;;;;;4.17;2.40;;;;;;;8.54;61.31;100358.81;5016044;28;20218;-83
2021/05/07 09:29:48;;;;;;;3.03;2.20;;;;;;;8.61;60.87;100354.81;5023775;28;20202;-83
2021/05/07 09:32:14;;;;;;;3.60;3.17;;;;;;;8.65;60.38;100354.56;5030398;28;20202;-84
2021/05/07 09:34:42;;;;;;;3.40;2.67;;;;;;;8.73;59.79;100359.44;5028170;28;20230;-84
2021/05/07 09:37:18;;;;;;;3.77;2.97;;;;;;;8.83;59.82;100354.41;5028524;28;20226;-83
2021/05/07 09:39:44;;;;;;;3.27;2.97;;;;;;;8.98;59.82;100364.94;5023699;28;20218;-83
2021/05/07 09:42:21;;;;;;;3.57;2.67;;;;;;;9.15;59.78;100376.31;5022907;28;20281;-84
2021/05/07 09:44:47;;;;;;;3.30;3.00;;;;;;;9.28;59.60;100374.63;5023424;28;20290;-84
2021/05/07 09:47:15;;;;;;;3.77;2.70;;;;;;;9.44;58.79;100371.88;5026421;28;20206;-83
2021/05/07 09:49:41;;;;;;;4.10;2.80;;;;;;;9.55;58.03;100380.84;5028180;28;20266;-84
2021/05/07 09:52:08;;;;;;;4.20;3.00;;;;;;;9.61;57.52;100372.50;5027786;28;20214;-83
2021/05/07 09:54:35;;;;;;;3.73;2.97;;;;;;;9.60;56.78;100381.44;5023221;28;20562;-84
2021/05/07 09:57:01;;;;;;;3.50;3.20;;;;;;;9.61;56.44;100385.81;5022618;28;20207;-84
2021/05/07 09:59:29;;;;;;;3.37;2.80;;;;;;;9.61;56.77;100385.81;5030213;28;20241;-84
2021/05/07 10:01:55;;;;;;;3.87;2.63;;;;;;;9.64;56.49;100380.28;5026072;28;20305;-83
2021/05/07 10:04:21;;;;;;;2.60;2.30;;;;;;;9.69;56.51;100386.16;5026144;28;20310;-84
2021/05/07 10:06:48;;;;;;;3.43;2.43;;;;;;;9.70;56.01;100385.19;5025708;28;20206;-82
2021/05/07 10:09:23;;;;;;;3.57;2.60;;;;;;;9.82;55.46;100396.03;5024503;28;20201;-83
2021/05/07 10:11:59;;;;;;;2.83;2.53;;;;;;;9.97;55.43;100395.03;5030123;28;20210;-82
2021/05/07 10:14:31;;;;;;;2.60;2.40;;;;;;;10.08;54.29;100400.50;5039565;28;20742;-82
2021/05/07 10:17:08;;;;;;;3.87;2.80;;;;;;;10.14;55.02;100417.88;5030035;28;20648;-81
2021/05/07 10:19:43;;;;;;;3.53;3.23;;;;;;;10.22;54.42;100411.13;5044955;28;20282;-79
2021/05/07 10:25:30;;;;;;;2.20;1.80;;;;;;;10.59;54.06;100406.00;5065216;23;20248;-66
2021/05/07 10:27:58;;;;;;;1.90;1.80;;;;;;;10.57;52.22;100419.44;5030230;28;20743;-66
2021/05/07 10:30:29;;;;;;;1.90;1.77;;;;;;;10.56;51.97;100416.91;5031293;28;20229;-67
2021/05/07 10:33:09;;;;;;;2.30;2.00;;;;;;;10.53;52.07;100428.59;5028851;28;20309;-66
2021/05/07 10:35:37;;;;;;;2.40;1.77;;;;;;;10.51;51.97;100432.31;5023101;28;20200;-66
2021/05/07 10:40:32;;;;;;;3.50;1.83;;;;;;;10.55;51.72;100420.50;5017410;28;20222;-67
2021/05/07 10:43:00;;;;;;;1.83;1.40;;;;;;;10.57;51.65;100424.75;5016035;28;20241;-68
2021/05/07 10:45:41;;;;;;;1.93;1.60;;;;;;;10.67;51.32;100417.88;5016150;28;20210;-65
2021/05/07 10:48:18;;;;;;;2.03;1.90;;;;;;;10.82;51.44;100434.63;5015520;28;20253;-67
2021/05/07 10:50:48;;;;;;;2.00;1.77;;;;;;;10.93;51.07;100439.22;5019483;28;20206;-66
2021/05/07 10:53:35;;;;;;;1.87;1.73;;;;;;;11.03;51.24;100422.50;5014010;28;20290;-68
2021/05/07 10:56:13;;;;;;;2.30;2.10;;;;;;;11.03;51.06;100432.31;5016357;28;20207;-67
2021/05/07 10:58:41;;;;;;;2.10;1.90;;;;;;;10.98;50.80;100443.28;5013969;28;20233;-68
2021/05/07 11:01:19;;;;;;;2.70;2.50;;;;;;;10.92;50.83;100450.84;5016158;28;20207;-67
2021/05/07 11:03:45;;;;;;;2.13;1.97;;;;;;;10.82;50.67;100447.09;5014259;28;20205;-67
2021/05/07 11:06:13;;;;;;;2.53;2.10;;;;;;;10.74;50.79;100456.47;5015070;28;20699;-66
2021/05/07 11:08:40;;;;;;;2.03;1.83;;;;;;;10.68;51.23;100458.69;5018320;28;20226;-66
2021/05/07 11:11:06;;;;;;;1.83;1.70;;;;;;;10.73;50.72;100453.91;5016170;28;20545;-67
2021/05/07 11:13:32;;;;;;;2.17;1.97;;;;;;;10.85;50.81;100465.53;5016096;28;20249;-67
2021/05/07 11:16:00;;;;;;;2.13;1.73;;;;;;;10.98;50.54;100451.28;5018738;28;20263;-67
2021/05/07 11:18:28;;;;;;;2.13;1.90;;;;;;;11.13;50.03;100455.53;5011555;28;20235;-67
2021/05/07 11:20:54;;;;;;;2.17;1.90;;;;;;;11.21;49.81;100479.03;5019145;28;20672;-67
2021/05/07 11:23:20;;;;;;;2.40;1.77;;;;;;;11.19;49.07;100477.41;5013646;28;20226;-67
2021/05/07 11:25:46;;;;;;;1.83;1.67;;;;;;;11.11;48.76;100476.13;5012385;28;20746;-67
2021/05/07 11:28:14;;;;;;;3.13;1.40;;;;;;;11.04;48.65;100482.84;5012750;28;20590;-67
2021/05/07 11:30:48;;;;;;;1.37;1.27;;;;;;;11.01;48.23;100503.50;5017876;28;20218;-67
2021/05/07 11:33:15;;;;;;;1.50;1.40;;;;;;;10.99;47.74;100500.94;5015782;28;20202;-64
2021/05/07 11:35:41;;;;;;;2.03;1.47;;;;;;;11.00;48.12;100494.66;5015983;28;20222;-64
2021/05/07 11:38:07;;;;;;;3.13;2.83;;;;;;;11.04;48.20;100498.84;5012934;28;20222;-65
2021/05/07 11:40:38;;;;;;;1.70;1.60;;;;;;;11.12;48.14;100501.81;5019351;28;20233;-68
2021/05/07 11:43:08;;;;;;;2.97;2.23;;;;;;;11.24;47.79;100499.28;5021866;28;20204;-64